createdAt,value
2019-04-03T00:00:58.608Z,19.80
2019-04-03T00:01:58.591Z,17.60
2019-04-03T00:02:58.618Z,17.20
2019-04-03T00:03:58.565Z,18.30
2019-04-03T00:04:58.559Z,17.10
2019-04-03T00:05:58.548Z,17.90
2019-04-03T00:06:58.536Z,20.20
2019-04-03T00:07:58.523Z,18.90
2019-04-03T00:08:58.528Z,19.10
2019-04-03T00:09:58.506Z,20.40
2019-04-03T00:10:58.490Z,19.00
2019-04-03T00:11:58.602Z,20.50
2019-04-03T00:12:58.477Z,18.70
2019-04-03T00:13:58.482Z,19.30
2019-04-03T00:14:58.458Z,20.80
2019-04-03T00:15:58.443Z,18.60
2019-04-03T00:16:58.436Z,18.30
2019-04-03T00:17:58.418Z,19.70
2019-04-03T00:18:58.405Z,19.60
2019-04-03T00:19:58.412Z,19.30
2019-04-03T00:20:58.389Z,19.00
2019-04-03T00:21:58.408Z,18.60
2019-04-03T00:22:58.457Z,19.40
2019-04-03T00:24:06.275Z,21.60
2019-04-03T00:24:58.346Z,16.20
2019-04-03T00:25:58.339Z,20.50
2019-04-03T00:26:58.319Z,19.80
2019-04-03T00:27:58.316Z,19.90
2019-04-03T00:28:58.304Z,19.80
2019-04-03T00:29:58.287Z,19.00
2019-04-03T00:30:58.276Z,19.60
2019-04-03T00:31:58.275Z,19.00
2019-04-03T00:32:58.268Z,21.60
2019-04-03T00:33:58.276Z,18.40
2019-04-03T00:34:58.343Z,19.90
2019-04-03T00:35:58.227Z,20.20
2019-04-03T00:36:58.211Z,18.70
2019-04-03T00:37:58.201Z,18.90
2019-04-03T00:38:58.200Z,20.00
2019-04-03T00:39:58.195Z,21.60
2019-04-03T00:40:58.186Z,20.10
2019-04-03T00:41:58.164Z,18.40
2019-04-03T00:42:58.182Z,17.90
2019-04-03T00:43:58.145Z,21.00
2019-04-03T00:44:58.130Z,19.00
2019-04-03T00:45:58.130Z,20.00
2019-04-03T00:46:58.105Z,19.40
2019-04-03T00:47:58.099Z,19.50
2019-04-03T00:48:58.194Z,18.70
2019-04-03T00:49:58.082Z,20.50
2019-04-03T00:50:58.071Z,18.40
2019-04-03T00:51:58.137Z,19.20
2019-04-03T00:52:58.081Z,16.80
2019-04-03T00:53:58.212Z,19.10
2019-04-03T00:54:58.029Z,18.60
2019-04-03T00:55:58.026Z,20.50
2019-04-03T00:56:58.003Z,19.80
2019-04-03T00:57:58.105Z,17.10
2019-04-03T00:58:57.984Z,20.40
2019-04-03T00:59:57.972Z,21.10
2019-04-03T01:00:58.040Z,18.80
2019-04-03T01:01:57.954Z,19.50
2019-04-03T01:02:58.999Z,18.20
2019-04-03T01:03:58.824Z,19.10
2019-04-03T01:04:58.758Z,18.60
2019-04-03T01:05:58.359Z,19.20
2019-04-03T01:06:58.714Z,16.50
2019-04-03T01:07:59.891Z,17.00
2019-04-03T01:08:59.388Z,17.90
2019-04-03T01:09:59.579Z,19.70
2019-04-03T01:10:58.750Z,17.90
2019-04-03T01:11:58.795Z,18.80
2019-04-03T01:12:57.837Z,20.80
2019-04-03T01:13:57.819Z,19.70
2019-04-03T01:14:57.818Z,20.10
2019-04-03T01:15:57.797Z,16.80
2019-04-03T01:16:57.791Z,18.10
2019-04-03T01:17:57.790Z,17.40
2019-04-03T01:18:57.769Z,19.50
2019-04-03T01:19:57.984Z,17.90
2019-04-03T01:20:57.756Z,19.20
2019-04-03T01:21:57.738Z,18.90
2019-04-03T01:22:57.729Z,18.80
2019-04-03T01:23:57.724Z,21.00
2019-04-03T01:24:57.703Z,18.00
2019-04-03T01:25:57.698Z,19.50
2019-04-03T01:26:57.804Z,17.40
2019-04-03T01:27:57.677Z,19.40
2019-04-03T01:28:57.665Z,19.40
2019-04-03T01:29:57.664Z,20.60
2019-04-03T01:30:57.640Z,19.90
2019-04-03T01:31:57.633Z,19.10
2019-04-03T01:32:57.615Z,17.50
2019-04-03T01:33:57.727Z,16.90
2019-04-03T01:34:57.617Z,18.80
2019-04-03T01:35:57.587Z,21.30
2019-04-03T01:36:57.574Z,19.10
2019-04-03T01:37:57.569Z,19.90
2019-04-03T01:38:57.559Z,17.30
2019-04-03T01:39:57.605Z,19.80
2019-04-03T01:40:57.545Z,20.10
2019-04-03T01:41:57.531Z,23.70
2019-04-03T01:42:57.519Z,44.00
2019-04-03T01:43:57.505Z,23.20
2019-04-03T01:44:57.493Z,22.00
2019-04-03T01:45:57.505Z,18.60
2019-04-03T01:46:58.217Z,19.50
2019-04-03T01:47:58.439Z,18.80
2019-04-03T01:48:58.578Z,17.80
2019-04-03T01:49:58.562Z,17.50
2019-04-03T01:50:59.194Z,19.60
2019-04-03T01:51:57.415Z,19.10
2019-04-03T01:52:57.417Z,19.20
2019-04-03T01:53:57.399Z,18.80
2019-04-03T01:54:57.385Z,21.90
2019-04-03T01:55:57.385Z,21.60
2019-04-03T01:56:57.372Z,17.90
2019-04-03T01:57:57.356Z,19.60
2019-04-03T01:58:57.345Z,19.40
2019-04-03T01:59:57.383Z,21.60
2019-04-03T02:00:57.324Z,18.10
2019-04-03T02:01:57.420Z,18.60
2019-04-03T02:02:57.304Z,19.30
2019-04-03T02:03:57.293Z,18.10
2019-04-03T02:04:57.331Z,21.20
2019-04-03T02:05:57.283Z,22.10
2019-04-03T02:06:57.269Z,19.90
2019-04-03T02:07:57.268Z,21.80
2019-04-03T02:08:57.249Z,35.60
2019-04-03T02:09:57.234Z,32.20
2019-04-03T02:10:57.214Z,24.60
2019-04-03T02:11:57.393Z,20.30
2019-04-03T02:12:57.194Z,22.10
2019-04-03T02:13:57.183Z,20.20
2019-04-03T02:14:57.172Z,18.50
2019-04-03T02:15:57.256Z,20.70
2019-04-03T02:16:57.155Z,18.50
2019-04-03T02:17:57.152Z,19.60
2019-04-03T02:18:57.134Z,19.70
2019-04-03T02:19:57.123Z,19.00
2019-04-03T02:20:57.798Z,18.10
2019-04-03T02:21:58.561Z,19.50
2019-04-03T02:22:59.515Z,28.80
2019-04-03T02:23:57.075Z,112.10
2019-04-03T02:24:57.065Z,129.20
2019-04-03T02:25:57.061Z,37.10
2019-04-03T02:26:57.126Z,21.30
2019-04-03T02:27:57.059Z,19.60
2019-04-03T02:28:57.027Z,19.20
2019-04-03T02:29:57.016Z,18.50
2019-04-03T02:30:57.013Z,21.90
2019-04-03T02:31:57.073Z,19.40
2019-04-03T02:32:57.511Z,17.60
2019-04-03T02:33:56.985Z,19.10
2019-04-03T02:34:56.959Z,18.80
2019-04-03T02:35:56.962Z,19.50
2019-04-03T02:36:56.945Z,20.20
2019-04-03T02:37:56.937Z,19.90
2019-04-03T02:38:56.931Z,18.80
2019-04-03T02:40:00.091Z,19.90
2019-04-03T02:40:56.962Z,18.60
2019-04-03T02:41:56.889Z,19.80
2019-04-03T02:42:56.882Z,20.70
2019-04-03T02:43:56.887Z,22.10
2019-04-03T02:44:56.876Z,18.40
2019-04-03T02:45:57.398Z,21.60
2019-04-03T02:46:59.429Z,19.00
2019-04-03T02:47:56.822Z,20.80
2019-04-03T02:48:56.831Z,20.10
2019-04-03T02:49:56.850Z,20.00
2019-04-03T02:50:56.790Z,18.10
2019-04-03T02:51:56.780Z,16.90
2019-04-03T02:52:58.700Z,18.80
2019-04-03T02:53:56.765Z,20.60
2019-04-03T02:54:56.749Z,19.10
2019-04-03T02:55:56.768Z,20.40
2019-04-03T02:56:56.728Z,20.20
2019-04-03T02:57:56.721Z,20.20
2019-04-03T02:58:56.711Z,20.20
2019-04-03T02:59:58.679Z,24.00
2019-04-03T03:00:56.897Z,18.90
2019-04-03T03:01:56.722Z,18.90
2019-04-03T03:02:56.663Z,20.10
2019-04-03T03:03:56.659Z,20.40
2019-04-03T03:04:56.952Z,20.10
2019-04-03T03:05:59.302Z,18.60
2019-04-03T03:06:56.621Z,17.80
2019-04-03T03:07:56.634Z,18.00
2019-04-03T03:08:56.601Z,19.90
2019-04-03T03:09:56.595Z,20.90
2019-04-03T03:10:56.604Z,21.30
2019-04-03T03:11:57.161Z,20.90
2019-04-03T03:12:59.860Z,20.20
2019-04-03T03:13:56.547Z,17.40
2019-04-03T03:14:56.535Z,18.10
2019-04-03T03:15:56.525Z,18.90
2019-04-03T03:16:56.532Z,19.60
2019-04-03T03:17:56.509Z,21.50
2019-04-03T03:18:59.901Z,20.10
2019-04-03T03:19:56.486Z,22.80
2019-04-03T03:20:56.470Z,20.10
2019-04-03T03:21:56.471Z,21.70
2019-04-03T03:22:56.469Z,17.60
2019-04-03T03:23:57.254Z,19.30
2019-04-03T03:24:59.718Z,20.00
2019-04-03T03:25:56.422Z,18.60
2019-04-03T03:26:56.407Z,19.10
2019-04-03T03:27:56.411Z,20.40
2019-04-03T03:28:56.781Z,22.70
2019-04-03T03:29:58.553Z,18.70
2019-04-03T03:31:02.038Z,21.20
2019-04-03T03:32:10.026Z,19.30
2019-04-03T03:33:22.740Z,21.40
2019-04-03T03:34:02.996Z,19.30
2019-04-03T03:35:10.721Z,20.50
2019-04-03T03:35:57.870Z,19.30
2019-04-03T03:37:00.124Z,19.80
2019-04-03T03:37:57.294Z,19.10
2019-04-03T03:38:56.331Z,18.40
2019-04-03T03:39:56.274Z,21.10
2019-04-03T03:40:56.278Z,20.40
2019-04-03T03:41:58.138Z,21.50
2019-04-03T03:42:56.235Z,19.80
2019-04-03T03:43:56.270Z,20.10
2019-04-03T03:44:56.440Z,22.00
2019-04-03T03:45:56.211Z,22.60
2019-04-03T03:46:59.824Z,20.20
2019-04-03T03:47:56.197Z,20.00
2019-04-03T03:48:56.284Z,18.40
2019-04-03T03:49:56.175Z,20.80
2019-04-03T03:50:57.952Z,21.30
2019-04-03T03:51:56.149Z,19.90
2019-04-03T03:52:56.214Z,19.60
2019-04-03T03:53:56.124Z,19.20
2019-04-03T03:54:56.129Z,19.80
2019-04-03T03:55:58.432Z,19.90
2019-04-03T03:56:56.094Z,19.80
2019-04-03T03:57:56.331Z,19.10
2019-04-03T03:58:56.070Z,20.00
2019-04-03T03:59:56.068Z,20.20
2019-04-03T04:00:59.517Z,20.20
2019-04-03T04:01:56.193Z,20.80
2019-04-03T04:02:56.334Z,21.50
2019-04-03T04:03:56.015Z,21.30
2019-04-03T04:04:56.013Z,19.40
2019-04-03T04:05:56.829Z,20.30
2019-04-03T04:06:55.978Z,21.10
2019-04-03T04:07:55.971Z,20.70
2019-04-03T04:08:55.961Z,19.30
2019-04-03T04:09:56.236Z,23.00
2019-04-03T04:10:59.495Z,21.90
2019-04-03T04:11:55.930Z,22.00
2019-04-03T04:12:55.919Z,20.80
2019-04-03T04:13:55.907Z,19.40
2019-04-03T04:14:57.159Z,20.80
2019-04-03T04:15:56.265Z,19.50
2019-04-03T04:16:55.882Z,20.30
2019-04-03T04:17:55.950Z,22.20
2019-04-03T04:18:57.538Z,22.90
2019-04-03T04:19:55.852Z,21.50
2019-04-03T04:20:55.970Z,22.10
2019-04-03T04:21:55.822Z,19.40
2019-04-03T04:22:56.127Z,21.60
2019-04-03T04:23:56.989Z,20.20
2019-04-03T04:24:57.144Z,21.40
2019-04-03T04:25:55.789Z,20.70
2019-04-03T04:26:55.775Z,20.20
2019-04-03T04:27:55.753Z,19.80
2019-04-03T04:28:55.784Z,22.10
2019-04-03T04:29:55.839Z,20.90
2019-04-03T04:30:55.730Z,22.10
2019-04-03T04:31:55.721Z,19.10
2019-04-03T04:32:55.698Z,21.60
2019-04-03T04:33:55.689Z,22.10
2019-04-03T04:34:55.757Z,21.70
2019-04-03T04:35:55.851Z,23.80
2019-04-03T04:36:56.126Z,25.10
2019-04-03T04:37:56.609Z,22.50
2019-04-03T04:38:55.810Z,24.00
2019-04-03T04:39:55.823Z,22.50
2019-04-03T04:40:55.697Z,22.90
2019-04-03T04:41:55.659Z,21.20
2019-04-03T04:42:55.595Z,23.50
2019-04-03T04:43:55.581Z,20.80
2019-04-03T04:44:55.724Z,21.00
2019-04-03T04:45:55.563Z,21.80
2019-04-03T04:46:55.561Z,20.60
2019-04-03T04:47:55.574Z,19.90
2019-04-03T04:48:55.527Z,22.40
2019-04-03T04:49:55.520Z,25.20
2019-04-03T04:50:55.553Z,24.90
2019-04-03T04:51:57.009Z,22.40
2019-04-03T04:52:56.716Z,23.50
2019-04-03T04:53:55.598Z,22.70
2019-04-03T04:54:55.470Z,23.50
2019-04-03T04:55:55.492Z,25.40
2019-04-03T04:56:55.442Z,24.30
2019-04-03T04:57:55.445Z,25.10
2019-04-03T04:58:55.427Z,21.40
2019-04-03T04:59:55.449Z,23.30
2019-04-03T05:00:55.568Z,21.90
2019-04-03T05:01:55.431Z,23.80
2019-04-03T05:02:55.607Z,28.00
2019-04-03T05:03:55.372Z,24.10
2019-04-03T05:04:56.184Z,20.00
2019-04-03T05:05:57.369Z,22.10
2019-04-03T05:06:55.341Z,21.30
2019-04-03T05:07:55.341Z,21.90
2019-04-03T05:08:55.315Z,21.80
2019-04-03T05:09:55.304Z,24.50
2019-04-03T05:10:55.297Z,25.30
2019-04-03T05:11:55.289Z,27.00
2019-04-03T05:12:55.302Z,23.70
2019-04-03T05:13:55.541Z,24.60
2019-04-03T05:14:55.540Z,28.00
2019-04-03T05:15:55.241Z,23.30
2019-04-03T05:16:55.890Z,25.80
2019-04-03T05:17:55.804Z,24.90
2019-04-03T05:18:55.214Z,21.30
2019-04-03T05:19:55.211Z,26.30
2019-04-03T05:20:55.383Z,20.30
2019-04-03T05:21:55.173Z,21.60
2019-04-03T05:22:55.727Z,26.10
2019-04-03T05:23:56.022Z,24.40
2019-04-03T05:24:55.375Z,23.20
2019-04-03T05:25:55.140Z,24.60
2019-04-03T05:26:55.122Z,25.00
2019-04-03T05:27:55.110Z,23.90
2019-04-03T05:28:57.607Z,24.40
2019-04-03T05:29:55.088Z,25.40
2019-04-03T05:30:55.077Z,26.70
2019-04-03T05:31:55.093Z,23.60
2019-04-03T05:32:55.059Z,25.10
2019-04-03T05:33:55.045Z,21.20
2019-04-03T05:34:55.044Z,25.20
2019-04-03T05:35:55.090Z,23.20
2019-04-03T05:36:55.022Z,25.30
2019-04-03T05:37:55.004Z,25.60
2019-04-03T05:38:55.101Z,22.00
2019-04-03T05:39:55.823Z,23.80
2019-04-03T05:40:56.495Z,24.70
2019-04-03T05:41:54.971Z,22.70
2019-04-03T05:42:54.995Z,21.80
2019-04-03T05:43:54.938Z,22.20
2019-04-03T05:44:54.942Z,24.10
2019-04-03T05:45:54.925Z,24.50
2019-04-03T05:46:54.906Z,24.10
2019-04-03T05:47:54.901Z,27.90
2019-04-03T05:48:54.884Z,22.40
2019-04-03T05:49:56.083Z,23.50
2019-04-03T05:50:57.643Z,22.60
2019-04-03T05:51:54.858Z,24.10
2019-04-03T05:52:54.931Z,25.60
2019-04-03T05:53:54.840Z,27.70
2019-04-03T05:54:54.824Z,25.30
2019-04-03T05:55:55.137Z,27.00
2019-04-03T05:56:54.810Z,26.70
2019-04-03T05:57:54.801Z,25.60
2019-04-03T05:58:57.197Z,25.90
2019-04-03T06:00:00.596Z,30.50
2019-04-03T06:01:04.420Z,27.40
2019-04-03T06:01:55.749Z,24.50
2019-04-03T06:02:57.185Z,27.20
2019-04-03T06:03:54.725Z,27.20
2019-04-03T06:04:54.741Z,30.70
2019-04-03T06:05:57.353Z,27.80
2019-04-03T06:06:54.724Z,29.10
2019-04-03T06:07:54.856Z,27.70
2019-04-03T06:08:56.467Z,24.90
2019-04-03T06:09:58.331Z,26.30
2019-04-03T06:10:54.655Z,27.10
2019-04-03T06:11:54.825Z,28.10
2019-04-03T06:12:54.694Z,26.40
2019-04-03T06:13:54.624Z,27.00
2019-04-03T06:14:54.613Z,24.90
2019-04-03T06:15:54.874Z,25.30
2019-04-03T06:16:56.183Z,29.50
2019-04-03T06:17:55.739Z,26.80
2019-04-03T06:18:54.565Z,26.00
2019-04-03T06:19:54.555Z,27.10
2019-04-03T06:20:54.551Z,24.50
2019-04-03T06:21:54.614Z,23.70
2019-04-03T06:22:54.538Z,29.10
2019-04-03T06:23:54.512Z,26.80
2019-04-03T06:24:56.436Z,23.90
2019-04-03T06:25:54.496Z,24.60
2019-04-03T06:26:54.486Z,26.30
2019-04-03T06:27:54.481Z,27.60
2019-04-03T06:28:54.471Z,22.90
2019-04-03T06:29:55.068Z,27.90
2019-04-03T06:30:56.613Z,27.70
2019-04-03T06:31:55.918Z,25.70
2019-04-03T06:32:55.399Z,29.00
2019-04-03T06:33:54.408Z,29.20
2019-04-03T06:34:54.397Z,28.20
2019-04-03T06:35:54.386Z,27.10
2019-04-03T06:36:54.587Z,28.60
2019-04-03T06:37:54.372Z,26.60
2019-04-03T06:38:56.081Z,29.50
2019-04-03T06:39:54.343Z,31.20
2019-04-03T06:40:54.328Z,29.10
2019-04-03T06:41:54.665Z,26.40
2019-04-03T06:42:54.319Z,26.20
2019-04-03T06:43:54.664Z,24.90
2019-04-03T06:44:54.292Z,26.00
2019-04-03T06:45:56.970Z,26.10
2019-04-03T06:46:55.021Z,27.90
2019-04-03T06:47:54.465Z,27.30
2019-04-03T06:48:55.693Z,27.80
2019-04-03T06:49:54.249Z,28.20
2019-04-03T06:50:54.225Z,26.20
2019-04-03T06:51:54.371Z,26.30
2019-04-03T06:52:54.205Z,24.00
2019-04-03T06:53:54.193Z,26.30
2019-04-03T06:54:54.207Z,24.40
2019-04-03T06:55:54.277Z,27.20
2019-04-03T06:56:54.217Z,26.60
2019-04-03T06:57:54.203Z,24.70
2019-04-03T06:58:54.142Z,26.60
2019-04-03T06:59:54.123Z,26.10
2019-04-03T07:00:55.040Z,25.20
2019-04-03T07:01:54.109Z,24.40
2019-04-03T07:02:54.287Z,26.40
2019-04-03T07:03:54.096Z,25.50
2019-04-03T07:04:54.076Z,27.40
2019-04-03T07:05:54.319Z,27.70
2019-04-03T07:06:56.269Z,22.20
2019-04-03T07:07:54.044Z,24.30
2019-04-03T07:08:54.037Z,25.00
2019-04-03T07:09:54.022Z,25.30
2019-04-03T07:10:55.561Z,25.80
2019-04-03T07:11:54.007Z,26.60
2019-04-03T07:12:53.998Z,27.60
2019-04-03T07:13:54.473Z,26.20
2019-04-03T07:14:53.971Z,25.70
2019-04-03T07:15:55.956Z,27.40
2019-04-03T07:16:53.973Z,26.20
2019-04-03T07:17:53.936Z,29.30
2019-04-03T07:18:53.924Z,22.60
2019-04-03T07:19:54.215Z,23.90
2019-04-03T07:20:53.979Z,29.50
2019-04-03T07:21:55.225Z,26.60
2019-04-03T07:22:54.140Z,25.50
2019-04-03T07:23:53.875Z,28.10
2019-04-03T07:24:53.862Z,27.80
2019-04-03T07:25:53.852Z,24.70
2019-04-03T07:26:53.894Z,26.70
2019-04-03T07:27:53.924Z,23.30
2019-04-03T07:28:53.817Z,27.30
2019-04-03T07:29:53.818Z,27.60
2019-04-03T07:30:53.983Z,24.90
2019-04-03T07:31:55.172Z,24.40
2019-04-03T07:32:57.042Z,27.40
2019-04-03T07:33:53.998Z,24.20
2019-04-03T07:34:53.750Z,25.10
2019-04-03T07:35:53.755Z,24.50
2019-04-03T07:36:53.732Z,26.00
2019-04-03T07:37:53.721Z,29.70
2019-04-03T07:38:53.721Z,24.90
2019-04-03T07:39:53.704Z,24.50
2019-04-03T07:40:54.042Z,26.10
2019-04-03T07:41:54.803Z,25.80
2019-04-03T07:42:55.377Z,28.90
2019-04-03T07:43:53.667Z,25.80
2019-04-03T07:44:53.678Z,25.60
2019-04-03T07:45:53.635Z,28.70
2019-04-03T07:46:55.519Z,28.00
2019-04-03T07:47:53.614Z,24.20
2019-04-03T07:48:53.616Z,25.00
2019-04-03T07:49:53.596Z,26.00
2019-04-03T07:50:53.576Z,26.60
2019-04-03T07:51:53.565Z,24.00
2019-04-03T07:52:53.558Z,26.90
2019-04-03T07:53:53.552Z,25.40
2019-04-03T07:54:56.438Z,24.50
2019-04-03T07:55:55.120Z,25.00
2019-04-03T07:56:56.426Z,22.80
2019-04-03T07:57:53.500Z,23.00
2019-04-03T07:58:53.677Z,24.60
2019-04-03T07:59:53.490Z,23.50
2019-04-03T08:00:53.468Z,24.90
2019-04-03T08:01:53.460Z,21.80
2019-04-03T08:02:53.552Z,23.80
2019-04-03T08:03:53.507Z,26.30
2019-04-03T08:04:54.208Z,27.80
2019-04-03T08:05:55.910Z,25.20
2019-04-03T08:06:53.503Z,25.70
2019-04-03T08:07:53.393Z,25.60
2019-04-03T08:09:07.018Z,25.20
2019-04-03T08:09:57.349Z,23.30
2019-04-03T08:10:53.376Z,24.90
2019-04-03T08:11:53.351Z,23.50
2019-04-03T08:12:53.339Z,21.90
2019-04-03T08:13:53.394Z,26.20
2019-04-03T08:14:53.390Z,23.80
2019-04-03T08:15:53.410Z,23.60
2019-04-03T08:16:55.960Z,27.00
2019-04-03T08:17:53.753Z,24.00
2019-04-03T08:18:53.282Z,21.20
2019-04-03T08:19:54.383Z,22.80
2019-04-03T08:20:53.393Z,23.00
2019-04-03T08:21:53.289Z,24.00
2019-04-03T08:22:53.232Z,26.00
2019-04-03T08:23:53.223Z,23.50
2019-04-03T08:24:53.762Z,26.70
2019-04-03T08:25:54.245Z,23.80
2019-04-03T08:26:53.513Z,26.70
2019-04-03T08:27:55.630Z,24.30
2019-04-03T08:28:53.168Z,26.60
2019-04-03T08:29:53.157Z,19.90
2019-04-03T08:30:53.766Z,23.00
2019-04-03T08:31:53.145Z,23.50
2019-04-03T08:32:53.129Z,25.50
2019-04-03T08:33:53.122Z,24.50
2019-04-03T08:34:53.226Z,26.30
2019-04-03T08:35:53.101Z,24.70
2019-04-03T08:36:53.250Z,23.60
2019-04-03T08:37:53.443Z,23.30
2019-04-03T08:38:53.067Z,24.60
2019-04-03T08:39:53.284Z,22.50
2019-04-03T08:40:53.547Z,24.20
2019-04-03T08:41:55.306Z,25.20
2019-04-03T08:42:53.361Z,24.90
2019-04-03T08:43:53.012Z,23.60
2019-04-03T08:44:52.997Z,23.60
2019-04-03T08:45:52.997Z,22.30
2019-04-03T08:46:53.024Z,23.50
2019-04-03T08:47:52.974Z,25.50
2019-04-03T08:48:55.114Z,24.40
2019-04-03T08:49:52.943Z,22.50
2019-04-03T08:50:52.937Z,21.70
2019-04-03T08:51:52.921Z,22.60
2019-04-03T08:52:52.931Z,26.80
2019-04-03T08:53:54.764Z,24.10
2019-04-03T08:54:52.894Z,23.60
2019-04-03T08:55:54.127Z,25.00
2019-04-03T08:56:52.874Z,23.60
2019-04-03T08:57:53.297Z,22.60
2019-04-03T08:58:52.865Z,22.60
2019-04-03T08:59:53.106Z,24.20
2019-04-03T09:00:52.833Z,22.20
2019-04-03T09:01:55.133Z,25.60
2019-04-03T09:02:52.812Z,26.10
2019-04-03T09:03:53.215Z,21.70
2019-04-03T09:04:52.946Z,21.70
2019-04-03T09:05:55.653Z,20.70
2019-04-03T09:06:54.137Z,25.50
2019-04-03T09:07:55.294Z,23.20
2019-04-03T09:08:52.751Z,21.40
2019-04-03T09:09:52.735Z,21.00
2019-04-03T09:10:52.726Z,23.30
2019-04-03T09:11:52.708Z,21.30
2019-04-03T09:12:52.697Z,21.60
2019-04-03T09:13:54.818Z,23.60
2019-04-03T09:14:52.683Z,22.60
2019-04-03T09:15:52.670Z,23.80
2019-04-03T09:16:52.922Z,26.70
2019-04-03T09:17:52.652Z,21.30
2019-04-03T09:18:52.640Z,21.00
2019-04-03T09:19:52.971Z,23.30
2019-04-03T09:20:52.634Z,22.40
2019-04-03T09:21:52.611Z,20.80
2019-04-03T09:22:53.952Z,24.90
2019-04-03T09:23:52.585Z,24.80
2019-04-03T09:24:52.583Z,23.60
2019-04-03T09:25:52.574Z,24.40
2019-04-03T09:26:52.558Z,22.50
2019-04-03T09:27:52.541Z,21.00
2019-04-03T09:28:52.531Z,23.10
2019-04-03T09:29:52.826Z,19.40
2019-04-03T09:30:54.119Z,20.40
2019-04-03T09:31:55.877Z,22.10
2019-04-03T09:32:53.675Z,21.90
2019-04-03T09:33:52.518Z,22.50
2019-04-03T09:34:52.576Z,20.60
2019-04-03T09:35:52.523Z,21.30
2019-04-03T09:36:52.452Z,21.20
2019-04-03T09:37:52.438Z,24.50
2019-04-03T09:38:52.435Z,20.00
2019-04-03T09:39:52.667Z,22.70
2019-04-03T09:40:52.666Z,21.70
2019-04-03T09:41:52.403Z,20.60
2019-04-03T09:42:52.385Z,22.10
2019-04-03T09:43:54.507Z,22.00
2019-04-03T09:44:55.146Z,19.10
2019-04-03T09:45:52.357Z,20.60
2019-04-03T09:46:52.351Z,19.80
2019-04-03T09:47:52.345Z,19.90
2019-04-03T09:48:52.328Z,20.50
2019-04-03T09:49:52.316Z,19.00
2019-04-03T09:50:52.306Z,19.50
2019-04-03T09:51:53.140Z,20.20
2019-04-03T09:52:54.198Z,19.50
2019-04-03T09:53:52.503Z,17.70
2019-04-03T09:54:52.262Z,20.80
2019-04-03T09:55:52.460Z,18.90
2019-04-03T09:56:59.332Z,18.60
2019-04-03T09:57:53.412Z,19.60
2019-04-03T09:58:52.218Z,19.00
2019-04-03T09:59:52.559Z,17.80
2019-04-03T10:00:52.203Z,19.60
2019-04-03T10:01:52.432Z,16.80
2019-04-03T10:02:52.182Z,21.00
2019-04-03T10:03:55.084Z,19.10
2019-04-03T10:04:52.166Z,20.90
2019-04-03T10:05:52.147Z,17.70
2019-04-03T10:06:52.144Z,20.00
2019-04-03T10:07:52.129Z,20.40
2019-04-03T10:08:52.444Z,19.50
2019-04-03T10:09:53.929Z,18.20
2019-04-03T10:10:52.227Z,17.30
2019-04-03T10:11:52.646Z,17.10
2019-04-03T10:12:54.160Z,17.80
2019-04-03T10:13:52.067Z,18.50
2019-04-03T10:14:52.056Z,19.10
2019-04-03T10:15:52.047Z,18.30
2019-04-03T10:16:52.037Z,18.50
2019-04-03T10:17:52.032Z,17.90
2019-04-03T10:18:52.012Z,18.10
2019-04-03T10:19:52.345Z,16.60
2019-04-03T10:20:52.009Z,18.50
2019-04-03T10:21:53.414Z,18.90
2019-04-03T10:22:51.975Z,17.10
2019-04-03T10:23:52.075Z,19.90
2019-04-03T10:24:52.042Z,17.20
2019-04-03T10:25:53.529Z,17.10
2019-04-03T10:26:51.929Z,16.80
2019-04-03T10:27:52.170Z,17.90
2019-04-03T10:28:51.911Z,17.50
2019-04-03T10:29:51.918Z,20.60
2019-04-03T10:30:52.833Z,20.40
2019-04-03T10:31:54.789Z,19.70
2019-04-03T10:32:51.880Z,18.90
2019-04-03T10:33:51.942Z,17.00
2019-04-03T10:34:52.287Z,17.40
2019-04-03T10:35:51.838Z,18.20
2019-04-03T10:36:51.831Z,18.30
2019-04-03T10:37:51.944Z,18.40
2019-04-03T10:38:51.811Z,18.60
2019-04-03T10:39:52.769Z,17.80
2019-04-03T10:40:51.978Z,17.30
2019-04-03T10:41:51.780Z,18.10
2019-04-03T10:42:51.769Z,18.20
2019-04-03T10:43:51.755Z,19.50
2019-04-03T10:44:51.743Z,19.60
2019-04-03T10:45:51.764Z,19.60
2019-04-03T10:46:51.722Z,20.00
2019-04-03T10:47:51.721Z,19.40
2019-04-03T10:48:51.840Z,17.10
2019-04-03T10:49:51.700Z,18.70
2019-04-03T10:50:51.686Z,20.40
2019-04-03T10:51:51.779Z,19.50
2019-04-03T10:52:51.664Z,18.10
2019-04-03T10:53:52.521Z,19.70
2019-04-03T10:54:51.645Z,19.90
2019-04-03T10:55:51.701Z,28.80
2019-04-03T10:56:51.685Z,18.70
2019-04-03T10:57:51.622Z,16.60
2019-04-03T10:58:51.695Z,22.10
2019-04-03T10:59:54.513Z,17.80
2019-04-03T11:00:51.582Z,19.10
2019-04-03T11:01:51.621Z,19.10
2019-04-03T11:02:51.854Z,17.00
2019-04-03T11:03:51.546Z,18.90
2019-04-03T11:04:51.852Z,18.70
2019-04-03T11:05:51.724Z,19.40
2019-04-03T11:06:51.517Z,17.30
2019-04-03T11:07:51.541Z,19.20
2019-04-03T11:08:51.497Z,18.60
2019-04-03T11:09:51.488Z,17.00
2019-04-03T11:10:51.773Z,18.00
2019-04-03T11:11:51.750Z,18.30
2019-04-03T11:12:51.467Z,18.10
2019-04-03T11:13:51.458Z,18.40
2019-04-03T11:14:51.526Z,18.40
2019-04-03T11:15:51.419Z,19.60
2019-04-03T11:16:51.526Z,19.20
2019-04-03T11:17:51.506Z,17.60
2019-04-03T11:18:58.482Z,19.20
2019-04-03T11:19:52.395Z,18.20
2019-04-03T11:20:51.371Z,18.60
2019-04-03T11:21:51.355Z,19.40
2019-04-03T11:23:04.057Z,18.10
2019-04-03T11:23:52.595Z,20.10
2019-04-03T11:24:51.917Z,17.00
2019-04-03T11:25:51.539Z,16.80
2019-04-03T11:26:52.460Z,20.20
2019-04-03T11:27:51.704Z,18.10
2019-04-03T11:28:51.618Z,16.50
2019-04-03T11:29:51.666Z,16.80
2019-04-03T11:30:54.599Z,19.70
2019-04-03T11:31:51.265Z,16.60
2019-04-03T11:32:51.550Z,19.50
2019-04-03T11:33:51.548Z,16.40
2019-04-03T11:34:53.354Z,18.60
2019-04-03T11:35:53.681Z,17.90
2019-04-03T11:36:51.994Z,17.00
2019-04-03T11:37:51.196Z,19.30
2019-04-03T11:38:51.215Z,15.50
2019-04-03T11:40:01.347Z,17.50
2019-04-03T11:40:52.715Z,20.40
2019-04-03T11:41:51.387Z,17.30
2019-04-03T11:42:51.152Z,17.50
2019-04-03T11:43:51.134Z,17.70
2019-04-03T11:44:51.520Z,16.80
2019-04-03T11:45:51.108Z,18.70
2019-04-03T11:46:51.142Z,19.70
2019-04-03T11:47:51.261Z,16.60
2019-04-03T11:48:51.091Z,20.20
2019-04-03T11:49:52.355Z,17.50
2019-04-03T11:50:51.169Z,16.40
2019-04-03T11:51:51.049Z,16.80
2019-04-03T11:52:51.756Z,17.00
2019-04-03T11:53:51.150Z,15.10
2019-04-03T11:54:52.836Z,17.30
2019-04-03T11:55:51.013Z,16.60
2019-04-03T11:56:51.186Z,15.40
2019-04-03T11:57:50.997Z,17.50
2019-04-03T11:58:52.032Z,17.20
2019-04-03T11:59:51.207Z,17.90
2019-04-03T12:00:51.057Z,16.00
2019-04-03T12:01:51.195Z,14.80
2019-04-03T12:02:51.162Z,16.70
2019-04-03T12:03:51.619Z,17.40
2019-04-03T12:04:50.911Z,17.90
2019-04-03T12:05:50.899Z,14.40
2019-04-03T12:06:51.954Z,16.40
2019-04-03T12:07:51.235Z,13.90
2019-04-03T12:08:50.875Z,15.00
2019-04-03T12:09:51.061Z,15.10
2019-04-03T12:10:50.848Z,13.60
2019-04-03T12:11:50.848Z,16.70
2019-04-03T12:12:50.834Z,16.10
2019-04-03T12:13:50.835Z,14.70
2019-04-03T12:14:51.201Z,18.40
2019-04-03T12:15:53.196Z,14.30
2019-04-03T12:16:50.796Z,15.70
2019-04-03T12:17:51.073Z,14.10
2019-04-03T12:18:50.766Z,16.60
2019-04-03T12:19:50.936Z,14.90
2019-04-03T12:20:50.752Z,16.40
2019-04-03T12:21:51.261Z,14.30
2019-04-03T12:22:51.986Z,15.30
2019-04-03T12:23:50.777Z,15.50
2019-04-03T12:24:51.802Z,15.60
2019-04-03T12:25:50.709Z,15.60
2019-04-03T12:26:52.408Z,15.90
2019-04-03T12:27:50.684Z,15.00
2019-04-03T12:28:50.972Z,15.00
2019-04-03T12:29:53.867Z,14.70
2019-04-03T12:30:50.641Z,15.70
2019-04-03T12:31:50.641Z,13.90
2019-04-03T12:32:50.625Z,16.10
2019-04-03T12:33:56.314Z,16.00
2019-04-03T12:34:51.957Z,16.10
2019-04-03T12:35:50.592Z,16.30
2019-04-03T12:36:50.583Z,15.10
2019-04-03T12:37:51.207Z,15.40
2019-04-03T12:38:50.595Z,15.40
2019-04-03T12:39:50.549Z,15.30
2019-04-03T12:40:50.537Z,15.80
2019-04-03T12:41:50.527Z,17.10
2019-04-03T12:42:50.520Z,14.50
2019-04-03T12:43:50.813Z,14.20
2019-04-03T12:44:54.028Z,16.40
2019-04-03T12:45:50.490Z,13.90
2019-04-03T12:46:50.583Z,14.40
2019-04-03T12:47:50.468Z,17.40
2019-04-03T12:48:51.287Z,18.00
2019-04-03T12:49:53.378Z,16.60
2019-04-03T12:50:50.451Z,14.80
2019-04-03T12:51:50.429Z,17.70
2019-04-03T12:52:50.623Z,18.50